Kaleetan — WY2512 — position and weather

sailwx.info

Track history (hours):
 
Tides and Currents Weather Stations Pressure Air Temp Water Temp Dewpoint Dewpoint Depression Visibility Wind Speed Wind Dir Waves Ship Positions

Kaleetan

Owner: WASHINGTON, STATE OF; Department of Transportation, OLYMPIA, WA. More information available from US FCC via Universal Licensing System and Coast Guard Vessel Documentation Center.

Last reported at 2017-Dec-11 17:01 UTC. Time now 2017-Dec-13 16:56 UTC.
Position N 47°35' W 122°28'.

Length 116 m; draft 5.6 m.

Type: Passenger vessel. MMSI: 366772990.

Date/timePositionNaut miles runAvg speedWind from/ knotsBaromVisibWave heightAir tempDewpointWater temp
2017-Dec-11 17:01N 47°35' W 122°28'510.9
2017-Dec-11 16:30N 47°36' W 122°20'611.4
2017-Dec-11 16:00N 47°34' W 122°28'5 9.9
2017-Dec-11 15:30N 47°34' W 122°36'1 2.0
2017-Dec-11 15:00N 47°33' W 122°37'5 9.4
2017-Dec-11 14:30N 47°34' W 122°30'713.4
2017-Dec-11 14:01N 47°36' W 122°20'5 9.3
2017-Dec-11 13:31N 47°35' W 122°27'611.2
2017-Dec-11 12:59N 47°34' W 122°36'1 2.6
2017-Dec-11 12:30N 47°34' W 122°37'0 0.0
2017-Dec-11 12:00N 47°34' W 122°37'0 0.0
2017-Dec-11 11:30N 47°34' W 122°37'0 0.0
2017-Dec-11 11:00N 47°34' W 122°37'0 0.0
2017-Dec-11 10:30N 47°34' W 122°37'0 0.0
2017-Dec-11 10:00N 47°34' W 122°37'0 0.0
2017-Dec-11 09:30N 47°34' W 122°37'0 0.0
2017-Dec-11 09:00N 47°34' W 122°37'0 0.0
2017-Dec-11 08:30N 47°34' W 122°37'0 0.0
2017-Dec-11 08:00N 47°34' W 122°37'0 0.0
2017-Dec-11 07:30N 47°34' W 122°37'0 0.0
2017-Dec-11 07:00N 47°34' W 122°37'0 0.0
2017-Dec-11 06:30N 47°34' W 122°37'0 0.0
2017-Dec-11 06:00N 47°34' W 122°37'510.3
2017-Dec-11 05:31N 47°34' W 122°30'713.1
2017-Dec-11 05:00N 47°36' W 122°20'5 9.6
2017-Dec-11 04:31N 47°35' W 122°27'712.8
2017-Dec-11 04:00N 47°33' W 122°37'1 2.3
2017-Dec-11 03:31N 47°34' W 122°35'714.2
2017-Dec-11 03:00N 47°36' W 122°25'3 6.4
2017-Dec-11 02:30N 47°36' W 122°20'714.7
2017-Dec-11 02:00N 47°34' W 122°31'5 9.3
2017-Dec-11 01:30N 47°34' W 122°38'3 5.3
2017-Dec-11 01:01N 47°35' W 122°34'714.1
2017-Dec-11 00:30N 47°36' W 122°24'2 4.6
2017-Dec-11 00:00N 47°36' W 122°20'611.3
2017-Dec-10 23:31N 47°34' W 122°28'612.6
2017-Dec-10 23:00N 47°34' W 122°38'0 0.0
2017-Dec-10 22:30N 47°34' W 122°38'4 8.1
2017-Dec-10 22:01N 47°34' W 122°32'815.4
2017-Dec-10 21:30N 47°36' W 122°20'3 6.0
2017-Dec-10 21:01N 47°35' W 122°25'714.3
2017-Dec-10 20:30N 47°35' W 122°35'2 3.5
2017-Dec-10 20:00N 47°33' W 122°37'713.5
2017-Dec-10 19:30N 47°35' W 122°28'5 9.0
2017-Dec-10 18:57N 47°36' W 122°20'4 8.7
2017-Dec-10 18:30N 47°35' W 122°26'713.5
2017-Dec-10 18:00N 47°34' W 122°36'1 2.4
2017-Dec-10 17:30N 47°34' W 122°38'4 7.4
2017-Dec-10 17:00N 47°34' W 122°32'816.2
2017-Dec-10 16:30N 47°36' W 122°20'4 7.8
2017-Dec-10 16:01N 47°35' W 122°26'612.5
2017-Dec-10 15:30N 47°35' W 122°35'2 3.4
2017-Dec-10 15:00N 47°34' W 122°38'4 8.2
2017-Dec-10 14:31N 47°34' W 122°32'815.5
2017-Dec-10 14:00N 47°36' W 122°20'1 2.9
2017-Dec-10 13:30N 47°36' W 122°23'713.4
2017-Dec-10 13:00N 47°35' W 122°32'4 7.2
2017-Dec-10 12:30N 47°34' W 122°37'0 0.0
2017-Dec-10 12:00N 47°34' W 122°37'0 0.0
2017-Dec-10 11:30N 47°34' W 122°37'0 0.0
2017-Dec-10 11:00N 47°34' W 122°37'0 0.0
2017-Dec-10 10:30N 47°34' W 122°37'0 0.0
2017-Dec-10 10:00N 47°34' W 122°37'0 0.0
2017-Dec-10 09:30N 47°34' W 122°37'0 0.0
2017-Dec-10 09:00N 47°34' W 122°37'0 0.0
2017-Dec-10 08:30N 47°34' W 122°37'0 0.0
2017-Dec-10 08:00N 47°34' W 122°37'0 0.0
2017-Dec-10 07:30N 47°34' W 122°37'0 0.0
2017-Dec-10 07:00N 47°34' W 122°37'2 4.0
2017-Dec-10 06:31N 47°35' W 122°35'2 4.1
2017-Dec-10 06:00N 47°34' W 122°38'510.5
2017-Dec-10 05:31N 47°34' W 122°30'712.9
2017-Dec-10 05:00N 47°36' W 122°20'4 9.0
2017-Dec-10 04:30N 47°35' W 122°27'713.0
2017-Dec-10 04:00N 47°34' W 122°36'0 0.4
2017-Dec-10 03:30N 47°34' W 122°36'714.0
2017-Dec-10 03:00N 47°35' W 122°26'4 7.2
2017-Dec-10 02:29N 47°36' W 122°20'713.5
2017-Dec-10 02:00N 47°34' W 122°30'510.8
2017-Dec-10 01:30N 47°34' W 122°38'4 7.3
2017-Dec-10 01:00N 47°35' W 122°32'815.8
2017-Dec-10 00:30N 47°36' W 122°21'3 5.6
2017-Dec-10 00:01N 47°36' W 122°25'714.2
2017-Dec-09 23:31N 47°35' W 122°35'1 1.4
2017-Dec-09 23:00N 47°34' W 122°36'612.9
2017-Dec-09 22:30N 47°35' W 122°27'4 8.4
2017-Dec-09 22:00N 47°36' W 122°20'815.7
2017-Dec-09 21:31N 47°34' W 122°32'4 7.7
2017-Dec-09 20:59N 47°34' W 122°38'4 8.2
2017-Dec-09 20:30N 47°34' W 122°32'815.4
2017-Dec-09 20:00N 47°36' W 122°21'0 0.3
2017-Dec-09 19:31N 47°36' W 122°21'0 0.7
2017-Dec-09 19:01N 47°36' W 122°21'611.5
2017-Dec-09 18:31N 47°34' W 122°29'510.8
2017-Dec-09 18:00N 47°34' W 122°38'4 7.1
2017-Dec-09 17:31N 47°36' W 122°33'611.7
2017-Dec-09 17:01N 47°36' W 122°25'2 3.9
2017-Dec-09 16:30N 47°36' W 122°22'713.9
2017-Dec-09 16:00N 47°34' W 122°32'4 8.1
2017-Dec-09 15:30N 47°34' W 122°38'3 6.7
2017-Dec-09 15:00N 47°36' W 122°33'3 6.9
2017-Dec-09 14:30N 47°34' W 122°29'612.0
2017-Dec-09 14:00N 47°36' W 122°20'4 7.2
2017-Dec-09 13:30N 47°36' W 122°26'612.8
2017-Dec-09 13:00N 47°35' W 122°35'2 3.7
2017-Dec-09 12:30N 47°34' W 122°37'0 0.0
2017-Dec-09 12:00N 47°34' W 122°37'0 0.0
2017-Dec-09 11:30N 47°34' W 122°37'0 0.0
2017-Dec-09 11:00N 47°34' W 122°37'0 0.0
2017-Dec-09 10:30N 47°34' W 122°37'0 0.0
2017-Dec-09 10:00N 47°34' W 122°37'0 0.0
2017-Dec-09 09:30N 47°34' W 122°37'0 0.0
2017-Dec-09 09:00N 47°34' W 122°37'0 0.0
2017-Dec-09 08:30N 47°34' W 122°37'0 0.0
2017-Dec-09 08:00N 47°34' W 122°37'0 0.0
2017-Dec-09 07:30N 47°34' W 122°37'0 0.0
2017-Dec-09 07:00N 47°34' W 122°37'0 0.0
2017-Dec-09 06:30N 47°34' W 122°37'0 0.2
2017-Dec-09 06:00N 47°34' W 122°37'612.1
2017-Dec-09 05:31N 47°35' W 122°28'611.3
2017-Dec-09 05:00N 47°36' W 122°20'5 9.1
2017-Dec-09 04:31N 47°35' W 122°27'713.0
2017-Dec-09 04:00N 47°34' W 122°36'1 1.9
2017-Dec-09 03:30N 47°34' W 122°35'612.9
2017-Dec-09 03:01N 47°35' W 122°26'4 7.8
2017-Dec-09 02:30N 47°36' W 122°20'613.0
2017-Dec-09 02:01N 47°34' W 122°30'5 9.2
2017-Dec-09 01:25N 47°34' W 122°38'3 7.8
2017-Dec-09 01:00N 47°36' W 122°34'713.1
2017-Dec-09 00:30N 47°36' W 122°24'2 4.7
2017-Dec-09 00:01N 47°36' W 122°20'611.7
2017-Dec-08 23:30N 47°34' W 122°29'612.0
2017-Dec-08 23:01N 47°34' W 122°38'0 0.0
2017-Dec-08 22:30N 47°34' W 122°38'511.0
2017-Dec-08 22:01N 47°35' W 122°30'612.7
2017-Dec-08 21:30N 47°36' W 122°20'612.3
2017-Dec-08 21:00N 47°34' W 122°29'610.8
2017-Dec-08 20:28N 47°34' W 122°38'4 7.9
2017-Dec-08 20:01N 47°35' W 122°32'816.0
2017-Dec-08 19:30N 47°36' W 122°21'3 6.4
2017-Dec-08 19:01N 47°36' W 122°25'612.7
2017-Dec-08 18:30N 47°35' W 122°35'2 4.8
2017-Dec-08 18:00N 47°34' W 122°37'611.3
2017-Dec-08 17:30N 47°34' W 122°29'612.1
2017-Dec-08 17:00N 47°36' W 122°20'5 9.8
2017-Dec-08 16:30N 47°35' W 122°27'5 9.3
2017-Dec-08 16:00N 47°35' W 122°34'3 5.2
2017-Dec-08 15:30N 47°34' W 122°38'4 7.4
2017-Dec-08 15:01N 47°34' W 122°32'3 5.9
2017-Dec-08 14:30N 47°35' W 122°28'510.3
2017-Dec-08 14:01N 47°36' W 122°20'510.9
2017-Dec-08 13:30N 47°35' W 122°28'5 9.9
2017-Dec-08 13:00N 47°34' W 122°36'1 2.8
2017-Dec-08 12:30N 47°34' W 122°37'0 0.0
2017-Dec-08 12:00N 47°34' W 122°37'0 0.0
2017-Dec-08 11:30N 47°34' W 122°37'0 0.0
2017-Dec-08 11:00N 47°34' W 122°37'0 0.0
2017-Dec-08 10:30N 47°34' W 122°37'0 0.0
2017-Dec-08 09:59N 47°34' W 122°37'0 0.0
2017-Dec-08 09:30N 47°34' W 122°37'0 0.0
2017-Dec-08 09:00N 47°34' W 122°37'0 0.0
2017-Dec-08 08:30N 47°34' W 122°37'0 0.0
2017-Dec-08 08:00N 47°34' W 122°37'0 0.0
2017-Dec-08 07:30N 47°34' W 122°37'0 0.0
2017-Dec-08 07:00N 47°34' W 122°37'0 0.0
2017-Dec-08 06:30N 47°34' W 122°37'0 0.0
2017-Dec-08 06:00N 47°34' W 122°37'611.2
2017-Dec-08 05:30N 47°35' W 122°29'612.3
2017-Dec-08 05:00N 47°36' W 122°20'4 8.9
2017-Dec-08 04:30N 47°35' W 122°27'713.3
2017-Dec-08 04:00N 47°34' W 122°36'1 1.6
2017-Dec-08 03:30N 47°34' W 122°36'713.8
2017-Dec-08 03:00N 47°36' W 122°25'3 6.9
2017-Dec-08 02:30N 47°36' W 122°20'612.7
2017-Dec-08 02:00N 47°34' W 122°29'611.0
2017-Dec-08 01:30N 47°34' W 122°38'2 4.9
2017-Dec-08 01:01N 47°35' W 122°35'714.5
2017-Dec-08 00:30N 47°36' W 122°24'2 4.7
2017-Dec-08 00:00N 47°36' W 122°20'612.2
2017-Dec-07 23:30N 47°34' W 122°29'611.3
2017-Dec-07 23:00N 47°34' W 122°38'0 0.0
2017-Dec-07 22:28N 47°34' W 122°38'4 9.0
2017-Dec-07 22:00N 47°34' W 122°32'815.5
2017-Dec-07 21:30N 47°36' W 122°20'3 6.0
2017-Dec-07 21:00N 47°35' W 122°25'713.8
2017-Dec-07 20:30N 47°35' W 122°35'2 4.0
2017-Dec-07 20:00N 47°33' W 122°37'612.8
2017-Dec-07 19:30N 47°35' W 122°28'510.5
2017-Dec-07 19:00N 47°36' W 122°20'3 5.5
2017-Dec-07 18:30N 47°36' W 122°24'713.9
2017-Dec-07 18:01N 47°35' W 122°35'2 4.8
2017-Dec-07 17:30N 47°34' W 122°37'4 8.3
2017-Dec-07 17:00N 47°34' W 122°31'815.4
2017-Dec-07 16:31N 47°36' W 122°20'4 7.9
2017-Dec-07 16:01N 47°35' W 122°26'612.7
2017-Dec-07 15:30N 47°34' W 122°36'1 2.9
2017-Dec-07 15:00N 47°34' W 122°38'611.1
2017-Dec-07 14:30N 47°34' W 122°29'612.3
2017-Dec-07 14:00N 47°36' W 122°20'4 8.8
2017-Dec-07 13:30N 47°35' W 122°27'611.8
2017-Dec-07 13:00N 47°35' W 122°35'2 3.3
2017-Dec-07 12:30N 47°34' W 122°37'0 0.0
2017-Dec-07 12:00N 47°34' W 122°37'0 0.0
2017-Dec-07 11:30N 47°34' W 122°37'0 0.0
2017-Dec-07 11:00N 47°34' W 122°37'0 0.0
2017-Dec-07 10:30N 47°34' W 122°37'0 0.0
2017-Dec-07 10:00N 47°34' W 122°37'4 7.3
2017-Dec-07 09:30N 47°35' W 122°32'715.0
2017-Dec-07 09:00N 47°36' W 122°21'3 6.2
2017-Dec-07 08:30N 47°35' W 122°26'714.0
2017-Dec-07 07:59N 47°34' W 122°36'1 1.5
2017-Dec-07 07:31N 47°34' W 122°37'0 0.0
2017-Dec-07 07:01N 47°34' W 122°37'0 0.0
2017-Dec-07 06:30N 47°34' W 122°37'0 0.0
2017-Dec-07 06:01N 47°34' W 122°37'510.5
2017-Dec-07 05:30N 47°34' W 122°30'713.1
2017-Dec-07 05:00N 47°36' W 122°20'510.7
2017-Dec-07 04:31N 47°35' W 122°28'612.9
2017-Dec-07 04:00N 47°34' W 122°37'2 3.1
2017-Dec-07 03:30N 47°34' W 122°35'713.5
2017-Dec-07 03:00N 47°36' W 122°26'4 7.0
2017-Dec-07 02:30N 47°36' W 122°20'612.8
2017-Dec-07 02:00N 47°34' W 122°29'611.1
2017-Dec-07 01:30N 47°34' W 122°38'2 4.8
2017-Dec-07 01:00N 47°35' W 122°35'714.8
2017-Dec-07 00:31N 47°36' W 122°24'2 4.5
2017-Dec-07 00:00N 47°36' W 122°20'612.7
2017-Dec-06 23:31N 47°34' W 122°29'611.0
2017-Dec-06 23:00N 47°34' W 122°38'0 0.0
2017-Dec-06 22:30N 47°34' W 122°38'4 8.6
2017-Dec-06 22:00N 47°34' W 122°31'815.1
2017-Dec-06 21:31N 47°36' W 122°20'3 6.3
2017-Dec-06 21:01N 47°36' W 122°25'  
2017-Dec-04 10:30N 47°34' W 122°37'0 0.0
2017-Dec-04 10:00N 47°34' W 122°37'0 0.0
2017-Dec-04 09:30N 47°34' W 122°37'0 0.0
2017-Dec-04 09:00N 47°34' W 122°37'0 0.0
2017-Dec-04 08:30N 47°34' W 122°37'0 0.0
2017-Dec-04 08:00N 47°34' W 122°37'0 0.0
2017-Dec-04 07:30N 47°34' W 122°37'0 0.0
2017-Dec-04 07:00N 47°34' W 122°37'0 0.0
2017-Dec-04 06:30N 47°34' W 122°37'0 0.2
2017-Dec-04 06:00N 47°34' W 122°37'511.0
2017-Dec-04 05:31N 47°34' W 122°29'612.5
2017-Dec-04 05:00N 47°36' W 122°20'4 7.7
2017-Dec-04 04:30N 47°35' W 122°26'714.4
2017-Dec-04 04:00N 47°34' W 122°36'2 3.0
2017-Dec-04 03:30N 47°35' W 122°35'612.6
2017-Dec-04 03:01N 47°36' W 122°26'4 7.3
2017-Dec-04 02:30N 47°36' W 122°20'611.2
2017-Dec-04 02:00N 47°34' W 122°28'612.5
2017-Dec-04 01:30N 47°34' W 122°38'3 5.3
2017-Dec-04 01:00N 47°35' W 122°34'714.4
2017-Dec-04 00:31N 47°36' W 122°24'2 4.5
2017-Dec-04 00:00N 47°36' W 122°20'612.6
2017-Dec-03 23:30N 47°34' W 122°29'611.1
2017-Dec-03 23:00N 47°34' W 122°38'0 0.0
2017-Dec-03 22:30N 47°34' W 122°38'4 7.4
2017-Dec-03 22:01N 47°34' W 122°32'816.2
2017-Dec-03 21:30N 47°36' W 122°20'3 6.5
2017-Dec-03 21:01N 47°36' W 122°25'713.1
2017-Dec-03 20:30N 47°35' W 122°35'2 4.2
2017-Dec-03 20:00N 47°34' W 122°37'613.0
2017-Dec-03 19:30N 47°35' W 122°28'510.4
2017-Dec-03 19:00N 47°36' W 122°20'2 3.2
2017-Dec-03 18:30N 47°36' W 122°23'714.1
2017-Dec-03 18:00N 47°36' W 122°33'3 6.9
2017-Dec-03 17:30N 47°34' W 122°38'4 7.8
2017-Dec-03 17:01N 47°34' W 122°32'815.8
2017-Dec-03 16:30N 47°36' W 122°20'3 6.0
2017-Dec-03 16:00N 47°36' W 122°25'713.9
2017-Dec-03 15:30N 47°35' W 122°35'2 4.0
2017-Dec-03 15:01N 47°34' W 122°38'510.1
2017-Dec-03 14:30N 47°34' W 122°30'713.5
2017-Dec-03 14:00N 47°36' W 122°20'0 0.1
2017-Dec-03 13:30N 47°36' W 122°20'815.7
2017-Dec-03 13:01N 47°34' W 122°32'4 7.9
2017-Dec-03 12:30N 47°34' W 122°37'0 0.0
2017-Dec-03 12:00N 47°34' W 122°37'0 0.0
2017-Dec-03 11:31N 47°34' W 122°37'0 0.0
2017-Dec-03 11:00N 47°34' W 122°37'0 0.0
2017-Dec-03 10:30N 47°34' W 122°37'0 0.0
2017-Dec-03 10:00N 47°34' W 122°37'0 0.0
2017-Dec-03 09:30N 47°34' W 122°37'0 0.0
2017-Dec-03 09:00N 47°34' W 122°37'0 0.0
2017-Dec-03 08:31N 47°34' W 122°37'0 0.0
2017-Dec-03 08:01N 47°34' W 122°37'0 0.0
2017-Dec-03 07:30N 47°34' W 122°37'0 0.0
2017-Dec-03 07:01N 47°34' W 122°37'0 0.0
2017-Dec-03 06:30N 47°34' W 122°37'0 0.1
2017-Dec-03 06:00N 47°34' W 122°37'611.6
2017-Dec-03 05:30N 47°35' W 122°29'611.8
2017-Dec-03 05:00N 47°36' W 122°20'4 7.4
2017-Dec-03 04:31N 47°35' W 122°26'714.4
2017-Dec-03 04:00N 47°34' W 122°36'1 2.3
2017-Dec-03 03:30N 47°35' W 122°35'612.6
2017-Dec-03 03:00N 47°35' W 122°26'4 7.5
2017-Dec-03 02:30N 47°36' W 122°20'612.2
2017-Dec-03 02:00N 47°34' W 122°29'611.7
2017-Dec-03 01:30N 47°34' W 122°38'3 6.0
2017-Dec-03 01:01N 47°35' W 122°34'713.7
2017-Dec-03 00:31N 47°36' W 122°24'2 4.4
2017-Dec-03 00:00N 47°36' W 122°20'611.6
2017-Dec-02 23:30N 47°34' W 122°29'612.0
2017-Dec-02 23:00N 47°34' W 122°38'0 0.0
2017-Dec-02 22:30N 47°34' W 122°38'4 7.6
2017-Dec-02 22:00N 47°34' W 122°32'815.9
2017-Dec-02 21:30N 47°36' W 122°20'3 6.7
2017-Dec-02 21:00N 47°36' W 122°25'713.0
2017-Dec-02 20:30N 47°35' W 122°35'2 4.4
2017-Dec-02 20:01N 47°33' W 122°37'713.7
2017-Dec-02 19:30N 47°35' W 122°27'5 9.8
2017-Dec-02 19:00N 47°36' W 122°20'2 3.6
2017-Dec-02 18:31N 47°36' W 122°23'713.9
2017-Dec-02 18:01N 47°36' W 122°33'3 6.8
2017-Dec-02 17:30N 47°34' W 122°38'4 7.9
2017-Dec-02 17:00N 47°34' W 122°32'815.8
2017-Dec-02 16:30N 47°36' W 122°20'3 5.8
2017-Dec-02 16:01N 47°36' W 122°25'714.2
2017-Dec-02 15:30N 47°35' W 122°35'2 3.7
2017-Dec-02 15:01N 47°34' W 122°38'510.1
2017-Dec-02 14:30N 47°34' W 122°30'713.6
2017-Dec-02 14:01N 47°36' W 122°20'3 6.6
2017-Dec-02 13:31N 47°36' W 122°25'713.2
2017-Dec-02 13:00N 47°35' W 122°35'2 4.0
2017-Dec-02 12:30N 47°34' W 122°37'0 0.0
2017-Dec-02 12:00N 47°34' W 122°37'0 0.0
2017-Dec-02 11:30N 47°34' W 122°37'0 0.0
2017-Dec-02 11:00N 47°34' W 122°37'0 0.0
2017-Dec-02 10:30N 47°34' W 122°37'0 0.0
2017-Dec-02 10:00N 47°34' W 122°37'0 0.0
2017-Dec-02 09:30N 47°34' W 122°37'0 0.0
2017-Dec-02 09:00N 47°34' W 122°37'0 0.0
2017-Dec-02 08:30N 47°34' W 122°37'0 0.0
2017-Dec-02 08:00N 47°34' W 122°37'0 0.0
2017-Dec-02 07:30N 47°34' W 122°37'0 0.0
2017-Dec-02 07:00N 47°34' W 122°37'0 0.0
2017-Dec-02 06:30N 47°34' W 122°37'0 0.0
2017-Dec-02 06:00N 47°34' W 122°37'510.7
2017-Dec-02 05:30N 47°34' W 122°30'612.9
2017-Dec-02 05:00N 47°36' W 122°20'4 7.9
2017-Dec-02 04:31N 47°35' W 122°26'714.2
2017-Dec-02 04:00N 47°34' W 122°36'1 2.6
2017-Dec-02 03:30N 47°35' W 122°35'612.6
2017-Dec-02 03:00N 47°35' W 122°26'4 7.8
2017-Dec-02 02:30N 47°36' W 122°20'611.7
2017-Dec-02 02:00N 47°34' W 122°29'611.7
2017-Dec-02 01:30N 47°34' W 122°38'3 6.2
2017-Dec-02 01:00N 47°35' W 122°34'713.4
2017-Dec-02 00:30N 47°36' W 122°24'2 4.7
2017-Dec-02 00:00N 47°36' W 122°20'511.0
2017-Dec-01 23:30N 47°34' W 122°28'612.7
2017-Dec-01 23:00N 47°34' W 122°37'0 0.1
2017-Dec-01 22:30N 47°34' W 122°38'5 9.2
2017-Dec-01 22:00N 47°34' W 122°31'714.3
2017-Dec-01 21:30N 47°36' W 122°20'4 7.6
2017-Dec-01 21:01N 47°35' W 122°26'713.2
2017-Dec-01 20:30N 47°34' W 122°36'2 3.2
2017-Dec-01 20:00N 47°33' W 122°37'713.2
2017-Dec-01 19:30N 47°35' W 122°28'5 9.9
2017-Dec-01 19:00N 47°36' W 122°20'2 4.0
2017-Dec-01 18:30N 47°36' W 122°23'713.7
2017-Dec-01 18:00N 47°36' W 122°33'3 6.5
2017-Dec-01 17:30N 47°34' W 122°38'  
Track history (hours):
 
Tides and Currents Weather Stations Pressure Air Temp Water Temp Dewpoint Dewpoint Depression Visibility Wind Speed Wind Dir Waves Ship Positions

Kaleetan

Owner: WASHINGTON, STATE OF; Department of Transportation, OLYMPIA, WA. More information available from US FCC via Universal Licensing System and Coast Guard Vessel Documentation Center.

Last reported at 2017-Dec-11 17:01 UTC. Time now 2017-Dec-13 16:56 UTC.
Position N 47°35' W 122°28'.

Length 116 m; draft 5.6 m.

Type: Passenger vessel. MMSI: 366772990.

Date/timePositionNaut miles runAvg speedWind from/ knotsBaromVisibWave heightAir tempDewpointWater temp
2017-Dec-11 17:01N 47°35' W 122°28'510.9
2017-Dec-11 16:30N 47°36' W 122°20'611.4
2017-Dec-11 16:00N 47°34' W 122°28'5 9.9
2017-Dec-11 15:30N 47°34' W 122°36'1 2.0
2017-Dec-11 15:00N 47°33' W 122°37'5 9.4
2017-Dec-11 14:30N 47°34' W 122°30'713.4
2017-Dec-11 14:01N 47°36' W 122°20'5 9.3
2017-Dec-11 13:31N 47°35' W 122°27'611.2
2017-Dec-11 12:59N 47°34' W 122°36'1 2.6
2017-Dec-11 12:30N 47°34' W 122°37'0 0.0
2017-Dec-11 12:00N 47°34' W 122°37'0 0.0
2017-Dec-11 11:30N 47°34' W 122°37'0 0.0
2017-Dec-11 11:00N 47°34' W 122°37'0 0.0
2017-Dec-11 10:30N 47°34' W 122°37'0 0.0
2017-Dec-11 10:00N 47°34' W 122°37'0 0.0
2017-Dec-11 09:30N 47°34' W 122°37'0 0.0
2017-Dec-11 09:00N 47°34' W 122°37'0 0.0
2017-Dec-11 08:30N 47°34' W 122°37'0 0.0
2017-Dec-11 08:00N 47°34' W 122°37'0 0.0
2017-Dec-11 07:30N 47°34' W 122°37'0 0.0
2017-Dec-11 07:00N 47°34' W 122°37'0 0.0
2017-Dec-11 06:30N 47°34' W 122°37'0 0.0
2017-Dec-11 06:00N 47°34' W 122°37'510.3
2017-Dec-11 05:31N 47°34' W 122°30'713.1
2017-Dec-11 05:00N 47°36' W 122°20'5 9.6
2017-Dec-11 04:31N 47°35' W 122°27'712.8
2017-Dec-11 04:00N 47°33' W 122°37'1 2.3
2017-Dec-11 03:31N 47°34' W 122°35'714.2
2017-Dec-11 03:00N 47°36' W 122°25'3 6.4
2017-Dec-11 02:30N 47°36' W 122°20'714.7
2017-Dec-11 02:00N 47°34' W 122°31'5 9.3
2017-Dec-11 01:30N 47°34' W 122°38'3 5.3
2017-Dec-11 01:01N 47°35' W 122°34'714.1
2017-Dec-11 00:30N 47°36' W 122°24'2 4.6
2017-Dec-11 00:00N 47°36' W 122°20'611.3
2017-Dec-10 23:31N 47°34' W 122°28'612.6
2017-Dec-10 23:00N 47°34' W 122°38'0 0.0
2017-Dec-10 22:30N 47°34' W 122°38'4 8.1
2017-Dec-10 22:01N 47°34' W 122°32'815.4
2017-Dec-10 21:30N 47°36' W 122°20'3 6.0
2017-Dec-10 21:01N 47°35' W 122°25'714.3
2017-Dec-10 20:30N 47°35' W 122°35'2 3.5
2017-Dec-10 20:00N 47°33' W 122°37'713.5
2017-Dec-10 19:30N 47°35' W 122°28'5 9.0
2017-Dec-10 18:57N 47°36' W 122°20'4 8.7
2017-Dec-10 18:30N 47°35' W 122°26'713.5
2017-Dec-10 18:00N 47°34' W 122°36'1 2.4
2017-Dec-10 17:30N 47°34' W 122°38'4 7.4
2017-Dec-10 17:00N 47°34' W 122°32'816.2
2017-Dec-10 16:30N 47°36' W 122°20'4 7.8
2017-Dec-10 16:01N 47°35' W 122°26'612.5
2017-Dec-10 15:30N 47°35' W 122°35'2 3.4
2017-Dec-10 15:00N 47°34' W 122°38'4 8.2
2017-Dec-10 14:31N 47°34' W 122°32'815.5
2017-Dec-10 14:00N 47°36' W 122°20'1 2.9
2017-Dec-10 13:30N 47°36' W 122°23'713.4
2017-Dec-10 13:00N 47°35' W 122°32'4 7.2
2017-Dec-10 12:30N 47°34' W 122°37'0 0.0
2017-Dec-10 12:00N 47°34' W 122°37'0 0.0
2017-Dec-10 11:30N 47°34' W 122°37'0 0.0
2017-Dec-10 11:00N 47°34' W 122°37'0 0.0
2017-Dec-10 10:30N 47°34' W 122°37'0 0.0
2017-Dec-10 10:00N 47°34' W 122°37'0 0.0
2017-Dec-10 09:30N 47°34' W 122°37'0 0.0
2017-Dec-10 09:00N 47°34' W 122°37'0 0.0
2017-Dec-10 08:30N 47°34' W 122°37'0 0.0
2017-Dec-10 08:00N 47°34' W 122°37'0 0.0
2017-Dec-10 07:30N 47°34' W 122°37'0 0.0
2017-Dec-10 07:00N 47°34' W 122°37'2 4.0
2017-Dec-10 06:31N 47°35' W 122°35'2 4.1
2017-Dec-10 06:00N 47°34' W 122°38'510.5
2017-Dec-10 05:31N 47°34' W 122°30'712.9
2017-Dec-10 05:00N 47°36' W 122°20'4 9.0
2017-Dec-10 04:30N 47°35' W 122°27'713.0
2017-Dec-10 04:00N 47°34' W 122°36'0 0.4
2017-Dec-10 03:30N 47°34' W 122°36'714.0
2017-Dec-10 03:00N 47°35' W 122°26'4 7.2
2017-Dec-10 02:29N 47°36' W 122°20'713.5
2017-Dec-10 02:00N 47°34' W 122°30'510.8
2017-Dec-10 01:30N 47°34' W 122°38'4 7.3
2017-Dec-10 01:00N 47°35' W 122°32'815.8
2017-Dec-10 00:30N 47°36' W 122°21'3 5.6
2017-Dec-10 00:01N 47°36' W 122°25'714.2
2017-Dec-09 23:31N 47°35' W 122°35'1 1.4
2017-Dec-09 23:00N 47°34' W 122°36'612.9
2017-Dec-09 22:30N 47°35' W 122°27'4 8.4
2017-Dec-09 22:00N 47°36' W 122°20'815.7
2017-Dec-09 21:31N 47°34' W 122°32'4 7.7
2017-Dec-09 20:59N 47°34' W 122°38'4 8.2
2017-Dec-09 20:30N 47°34' W 122°32'815.4
2017-Dec-09 20:00N 47°36' W 122°21'0 0.3
2017-Dec-09 19:31N 47°36' W 122°21'0 0.7
2017-Dec-09 19:01N 47°36' W 122°21'611.5
2017-Dec-09 18:31N 47°34' W 122°29'510.8
2017-Dec-09 18:00N 47°34' W 122°38'4 7.1
2017-Dec-09 17:31N 47°36' W 122°33'611.7
2017-Dec-09 17:01N 47°36' W 122°25'2 3.9
2017-Dec-09 16:30N 47°36' W 122°22'713.9
2017-Dec-09 16:00N 47°34' W 122°32'4 8.1
2017-Dec-09 15:30N 47°34' W 122°38'3 6.7
2017-Dec-09 15:00N 47°36' W 122°33'3 6.9
2017-Dec-09 14:30N 47°34' W 122°29'612.0
2017-Dec-09 14:00N 47°36' W 122°20'4 7.2
2017-Dec-09 13:30N 47°36' W 122°26'612.8
2017-Dec-09 13:00N 47°35' W 122°35'2 3.7
2017-Dec-09 12:30N 47°34' W 122°37'0 0.0
2017-Dec-09 12:00N 47°34' W 122°37'0 0.0
2017-Dec-09 11:30N 47°34' W 122°37'0 0.0
2017-Dec-09 11:00N 47°34' W 122°37'0 0.0
2017-Dec-09 10:30N 47°34' W 122°37'0 0.0
2017-Dec-09 10:00N 47°34' W 122°37'0 0.0
2017-Dec-09 09:30N 47°34' W 122°37'0 0.0
2017-Dec-09 09:00N 47°34' W 122°37'0 0.0
2017-Dec-09 08:30N 47°34' W 122°37'0 0.0
2017-Dec-09 08:00N 47°34' W 122°37'0 0.0
2017-Dec-09 07:30N 47°34' W 122°37'0 0.0
2017-Dec-09 07:00N 47°34' W 122°37'0 0.0
2017-Dec-09 06:30N 47°34' W 122°37'0 0.2
2017-Dec-09 06:00N 47°34' W 122°37'612.1
2017-Dec-09 05:31N 47°35' W 122°28'611.3
2017-Dec-09 05:00N 47°36' W 122°20'5 9.1
2017-Dec-09 04:31N 47°35' W 122°27'713.0
2017-Dec-09 04:00N 47°34' W 122°36'1 1.9
2017-Dec-09 03:30N 47°34' W 122°35'612.9
2017-Dec-09 03:01N 47°35' W 122°26'4 7.8
2017-Dec-09 02:30N 47°36' W 122°20'613.0
2017-Dec-09 02:01N 47°34' W 122°30'5 9.2
2017-Dec-09 01:25N 47°34' W 122°38'3 7.8
2017-Dec-09 01:00N 47°36' W 122°34'713.1
2017-Dec-09 00:30N 47°36' W 122°24'2 4.7
2017-Dec-09 00:01N 47°36' W 122°20'611.7
2017-Dec-08 23:30N 47°34' W 122°29'612.0
2017-Dec-08 23:01N 47°34' W 122°38'0 0.0
2017-Dec-08 22:30N 47°34' W 122°38'511.0
2017-Dec-08 22:01N 47°35' W 122°30'612.7
2017-Dec-08 21:30N 47°36' W 122°20'612.3
2017-Dec-08 21:00N 47°34' W 122°29'610.8
2017-Dec-08 20:28N 47°34' W 122°38'4 7.9
2017-Dec-08 20:01N 47°35' W 122°32'816.0
2017-Dec-08 19:30N 47°36' W 122°21'3 6.4
2017-Dec-08 19:01N 47°36' W 122°25'612.7
2017-Dec-08 18:30N 47°35' W 122°35'2 4.8
2017-Dec-08 18:00N 47°34' W 122°37'611.3
2017-Dec-08 17:30N 47°34' W 122°29'612.1
2017-Dec-08 17:00N 47°36' W 122°20'5 9.8
2017-Dec-08 16:30N 47°35' W 122°27'5 9.3
2017-Dec-08 16:00N 47°35' W 122°34'3 5.2
2017-Dec-08 15:30N 47°34' W 122°38'4 7.4
2017-Dec-08 15:01N 47°34' W 122°32'3 5.9
2017-Dec-08 14:30N 47°35' W 122°28'510.3
2017-Dec-08 14:01N 47°36' W 122°20'510.9
2017-Dec-08 13:30N 47°35' W 122°28'5 9.9
2017-Dec-08 13:00N 47°34' W 122°36'1 2.8
2017-Dec-08 12:30N 47°34' W 122°37'0 0.0
2017-Dec-08 12:00N 47°34' W 122°37'0 0.0
2017-Dec-08 11:30N 47°34' W 122°37'0 0.0
2017-Dec-08 11:00N 47°34' W 122°37'0 0.0
2017-Dec-08 10:30N 47°34' W 122°37'0 0.0
2017-Dec-08 09:59N 47°34' W 122°37'0 0.0
2017-Dec-08 09:30N 47°34' W 122°37'0 0.0
2017-Dec-08 09:00N 47°34' W 122°37'0 0.0
2017-Dec-08 08:30N 47°34' W 122°37'0 0.0
2017-Dec-08 08:00N 47°34' W 122°37'0 0.0
2017-Dec-08 07:30N 47°34' W 122°37'0 0.0
2017-Dec-08 07:00N 47°34' W 122°37'0 0.0
2017-Dec-08 06:30N 47°34' W 122°37'0 0.0
2017-Dec-08 06:00N 47°34' W 122°37'611.2
2017-Dec-08 05:30N 47°35' W 122°29'612.3
2017-Dec-08 05:00N 47°36' W 122°20'4 8.9
2017-Dec-08 04:30N 47°35' W 122°27'713.3
2017-Dec-08 04:00N 47°34' W 122°36'1 1.6
2017-Dec-08 03:30N 47°34' W 122°36'713.8
2017-Dec-08 03:00N 47°36' W 122°25'3 6.9
2017-Dec-08 02:30N 47°36' W 122°20'612.7
2017-Dec-08 02:00N 47°34' W 122°29'611.0
2017-Dec-08 01:30N 47°34' W 122°38'2 4.9
2017-Dec-08 01:01N 47°35' W 122°35'714.5
2017-Dec-08 00:30N 47°36' W 122°24'2 4.7
2017-Dec-08 00:00N 47°36' W 122°20'612.2
2017-Dec-07 23:30N 47°34' W 122°29'611.3
2017-Dec-07 23:00N 47°34' W 122°38'0 0.0
2017-Dec-07 22:28N 47°34' W 122°38'4 9.0
2017-Dec-07 22:00N 47°34' W 122°32'815.5
2017-Dec-07 21:30N 47°36' W 122°20'3 6.0
2017-Dec-07 21:00N 47°35' W 122°25'713.8
2017-Dec-07 20:30N 47°35' W 122°35'2 4.0
2017-Dec-07 20:00N 47°33' W 122°37'612.8
2017-Dec-07 19:30N 47°35' W 122°28'510.5
2017-Dec-07 19:00N 47°36' W 122°20'3 5.5
2017-Dec-07 18:30N 47°36' W 122°24'713.9
2017-Dec-07 18:01N 47°35' W 122°35'2 4.8
2017-Dec-07 17:30N 47°34' W 122°37'4 8.3
2017-Dec-07 17:00N 47°34' W 122°31'815.4
2017-Dec-07 16:31N 47°36' W 122°20'4 7.9
2017-Dec-07 16:01N 47°35' W 122°26'612.7
2017-Dec-07 15:30N 47°34' W 122°36'1 2.9
2017-Dec-07 15:00N 47°34' W 122°38'611.1
2017-Dec-07 14:30N 47°34' W 122°29'612.3
2017-Dec-07 14:00N 47°36' W 122°20'4 8.8
2017-Dec-07 13:30N 47°35' W 122°27'611.8
2017-Dec-07 13:00N 47°35' W 122°35'2 3.3
2017-Dec-07 12:30N 47°34' W 122°37'0 0.0
2017-Dec-07 12:00N 47°34' W 122°37'0 0.0
2017-Dec-07 11:30N 47°34' W 122°37'0 0.0
2017-Dec-07 11:00N 47°34' W 122°37'0 0.0
2017-Dec-07 10:30N 47°34' W 122°37'0 0.0
2017-Dec-07 10:00N 47°34' W 122°37'4 7.3
2017-Dec-07 09:30N 47°35' W 122°32'715.0
2017-Dec-07 09:00N 47°36' W 122°21'3 6.2
2017-Dec-07 08:30N 47°35' W 122°26'714.0
2017-Dec-07 07:59N 47°34' W 122°36'1 1.5
2017-Dec-07 07:31N 47°34' W 122°37'0 0.0
2017-Dec-07 07:01N 47°34' W 122°37'0 0.0
2017-Dec-07 06:30N 47°34' W 122°37'0 0.0
2017-Dec-07 06:01N 47°34' W 122°37'510.5
2017-Dec-07 05:30N 47°34' W 122°30'713.1
2017-Dec-07 05:00N 47°36' W 122°20'510.7
2017-Dec-07 04:31N 47°35' W 122°28'612.9
2017-Dec-07 04:00N 47°34' W 122°37'2 3.1
2017-Dec-07 03:30N 47°34' W 122°35'713.5
2017-Dec-07 03:00N 47°36' W 122°26'4 7.0
2017-Dec-07 02:30N 47°36' W 122°20'612.8
2017-Dec-07 02:00N 47°34' W 122°29'611.1
2017-Dec-07 01:30N 47°34' W 122°38'2 4.8
2017-Dec-07 01:00N 47°35' W 122°35'714.8
2017-Dec-07 00:31N 47°36' W 122°24'2 4.5
2017-Dec-07 00:00N 47°36' W 122°20'612.7
2017-Dec-06 23:31N 47°34' W 122°29'611.0
2017-Dec-06 23:00N 47°34' W 122°38'0 0.0
2017-Dec-06 22:30N 47°34' W 122°38'4 8.6
2017-Dec-06 22:00N 47°34' W 122°31'815.1
2017-Dec-06 21:31N 47°36' W 122°20'3 6.3
2017-Dec-06 21:01N 47°36' W 122°25'  
2017-Dec-04 10:30N 47°34' W 122°37'0 0.0
2017-Dec-04 10:00N 47°34' W 122°37'0 0.0
2017-Dec-04 09:30N 47°34' W 122°37'0 0.0
2017-Dec-04 09:00N 47°34' W 122°37'0 0.0
2017-Dec-04 08:30N 47°34' W 122°37'0 0.0
2017-Dec-04 08:00N 47°34' W 122°37'0 0.0
2017-Dec-04 07:30N 47°34' W 122°37'0 0.0
2017-Dec-04 07:00N 47°34' W 122°37'0 0.0
2017-Dec-04 06:30N 47°34' W 122°37'0 0.2
2017-Dec-04 06:00N 47°34' W 122°37'511.0
2017-Dec-04 05:31N 47°34' W 122°29'612.5
2017-Dec-04 05:00N 47°36' W 122°20'4 7.7
2017-Dec-04 04:30N 47°35' W 122°26'714.4
2017-Dec-04 04:00N 47°34' W 122°36'2 3.0
2017-Dec-04 03:30N 47°35' W 122°35'612.6
2017-Dec-04 03:01N 47°36' W 122°26'4 7.3
2017-Dec-04 02:30N 47°36' W 122°20'611.2
2017-Dec-04 02:00N 47°34' W 122°28'612.5
2017-Dec-04 01:30N 47°34' W 122°38'3 5.3
2017-Dec-04 01:00N 47°35' W 122°34'714.4
2017-Dec-04 00:31N 47°36' W 122°24'2 4.5
2017-Dec-04 00:00N 47°36' W 122°20'612.6
2017-Dec-03 23:30N 47°34' W 122°29'611.1
2017-Dec-03 23:00N 47°34' W 122°38'0 0.0
2017-Dec-03 22:30N 47°34' W 122°38'4 7.4
2017-Dec-03 22:01N 47°34' W 122°32'816.2
2017-Dec-03 21:30N 47°36' W 122°20'3 6.5
2017-Dec-03 21:01N 47°36' W 122°25'713.1
2017-Dec-03 20:30N 47°35' W 122°35'2 4.2
2017-Dec-03 20:00N 47°34' W 122°37'613.0
2017-Dec-03 19:30N 47°35' W 122°28'510.4
2017-Dec-03 19:00N 47°36' W 122°20'2 3.2
2017-Dec-03 18:30N 47°36' W 122°23'714.1
2017-Dec-03 18:00N 47°36' W 122°33'3 6.9
2017-Dec-03 17:30N 47°34' W 122°38'4 7.8
2017-Dec-03 17:01N 47°34' W 122°32'815.8
2017-Dec-03 16:30N 47°36' W 122°20'3 6.0
2017-Dec-03 16:00N 47°36' W 122°25'713.9
2017-Dec-03 15:30N 47°35' W 122°35'2 4.0
2017-Dec-03 15:01N 47°34' W 122°38'510.1
2017-Dec-03 14:30N 47°34' W 122°30'713.5
2017-Dec-03 14:00N 47°36' W 122°20'0 0.1
2017-Dec-03 13:30N 47°36' W 122°20'815.7
2017-Dec-03 13:01N 47°34' W 122°32'4 7.9
2017-Dec-03 12:30N 47°34' W 122°37'0 0.0
2017-Dec-03 12:00N 47°34' W 122°37'0 0.0
2017-Dec-03 11:31N 47°34' W 122°37'0 0.0
2017-Dec-03 11:00N 47°34' W 122°37'0 0.0
2017-Dec-03 10:30N 47°34' W 122°37'0 0.0
2017-Dec-03 10:00N 47°34' W 122°37'0 0.0
2017-Dec-03 09:30N 47°34' W 122°37'0 0.0
2017-Dec-03 09:00N 47°34' W 122°37'0 0.0
2017-Dec-03 08:31N 47°34' W 122°37'0 0.0
2017-Dec-03 08:01N 47°34' W 122°37'0 0.0
2017-Dec-03 07:30N 47°34' W 122°37'0 0.0
2017-Dec-03 07:01N 47°34' W 122°37'0 0.0
2017-Dec-03 06:30N 47°34' W 122°37'0 0.1
2017-Dec-03 06:00N 47°34' W 122°37'611.6
2017-Dec-03 05:30N 47°35' W 122°29'611.8
2017-Dec-03 05:00N 47°36' W 122°20'4 7.4
2017-Dec-03 04:31N 47°35' W 122°26'714.4
2017-Dec-03 04:00N 47°34' W 122°36'1 2.3
2017-Dec-03 03:30N 47°35' W 122°35'612.6
2017-Dec-03 03:00N 47°35' W 122°26'4 7.5
2017-Dec-03 02:30N 47°36' W 122°20'612.2
2017-Dec-03 02:00N 47°34' W 122°29'611.7
2017-Dec-03 01:30N 47°34' W 122°38'3 6.0
2017-Dec-03 01:01N 47°35' W 122°34'713.7
2017-Dec-03 00:31N 47°36' W 122°24'2 4.4
2017-Dec-03 00:00N 47°36' W 122°20'611.6
2017-Dec-02 23:30N 47°34' W 122°29'612.0
2017-Dec-02 23:00N 47°34' W 122°38'0 0.0
2017-Dec-02 22:30N 47°34' W 122°38'4 7.6
2017-Dec-02 22:00N 47°34' W 122°32'815.9
2017-Dec-02 21:30N 47°36' W 122°20'3 6.7
2017-Dec-02 21:00N 47°36' W 122°25'713.0
2017-Dec-02 20:30N 47°35' W 122°35'2 4.4
2017-Dec-02 20:01N 47°33' W 122°37'713.7
2017-Dec-02 19:30N 47°35' W 122°27'5 9.8
2017-Dec-02 19:00N 47°36' W 122°20'2 3.6
2017-Dec-02 18:31N 47°36' W 122°23'713.9
2017-Dec-02 18:01N 47°36' W 122°33'3 6.8
2017-Dec-02 17:30N 47°34' W 122°38'4 7.9
2017-Dec-02 17:00N 47°34' W 122°32'815.8
2017-Dec-02 16:30N 47°36' W 122°20'3 5.8
2017-Dec-02 16:01N 47°36' W 122°25'714.2
2017-Dec-02 15:30N 47°35' W 122°35'2 3.7
2017-Dec-02 15:01N 47°34' W 122°38'510.1
2017-Dec-02 14:30N 47°34' W 122°30'713.6
2017-Dec-02 14:01N 47°36' W 122°20'3 6.6
2017-Dec-02 13:31N 47°36' W 122°25'713.2
2017-Dec-02 13:00N 47°35' W 122°35'2 4.0
2017-Dec-02 12:30N 47°34' W 122°37'0 0.0
2017-Dec-02 12:00N 47°34' W 122°37'0 0.0
2017-Dec-02 11:30N 47°34' W 122°37'0 0.0
2017-Dec-02 11:00N 47°34' W 122°37'0 0.0
2017-Dec-02 10:30N 47°34' W 122°37'0 0.0
2017-Dec-02 10:00N 47°34' W 122°37'0 0.0
2017-Dec-02 09:30N 47°34' W 122°37'0 0.0
2017-Dec-02 09:00N 47°34' W 122°37'0 0.0
2017-Dec-02 08:30N 47°34' W 122°37'0 0.0
2017-Dec-02 08:00N 47°34' W 122°37'0 0.0
2017-Dec-02 07:30N 47°34' W 122°37'0 0.0
2017-Dec-02 07:00N 47°34' W 122°37'0 0.0
2017-Dec-02 06:30N 47°34' W 122°37'0 0.0
2017-Dec-02 06:00N 47°34' W 122°37'510.7
2017-Dec-02 05:30N 47°34' W 122°30'612.9
2017-Dec-02 05:00N 47°36' W 122°20'4 7.9
2017-Dec-02 04:31N 47°35' W 122°26'714.2
2017-Dec-02 04:00N 47°34' W 122°36'1 2.6
2017-Dec-02 03:30N 47°35' W 122°35'612.6
2017-Dec-02 03:00N 47°35' W 122°26'4 7.8
2017-Dec-02 02:30N 47°36' W 122°20'611.7
2017-Dec-02 02:00N 47°34' W 122°29'611.7
2017-Dec-02 01:30N 47°34' W 122°38'3 6.2
2017-Dec-02 01:00N 47°35' W 122°34'713.4
2017-Dec-02 00:30N 47°36' W 122°24'2 4.7
2017-Dec-02 00:00N 47°36' W 122°20'511.0
2017-Dec-01 23:30N 47°34' W 122°28'612.7
2017-Dec-01 23:00N 47°34' W 122°37'0 0.1
2017-Dec-01 22:30N 47°34' W 122°38'5 9.2
2017-Dec-01 22:00N 47°34' W 122°31'714.3
2017-Dec-01 21:30N 47°36' W 122°20'4 7.6
2017-Dec-01 21:01N 47°35' W 122°26'713.2
2017-Dec-01 20:30N 47°34' W 122°36'2 3.2
2017-Dec-01 20:00N 47°33' W 122°37'713.2
2017-Dec-01 19:30N 47°35' W 122°28'5 9.9
2017-Dec-01 19:00N 47°36' W 122°20'2 4.0
2017-Dec-01 18:30N 47°36' W 122°23'713.7
2017-Dec-01 18:00N 47°36' W 122°33'3 6.5
2017-Dec-01 17:30N 47°34' W 122°38'  

Dump ship's entire track history